Main page
METAR-TAF:

METAR-TAF

Airports :

Kadala Airport

Chita, Russia

latitude: 52-05N, longitude: 113-29E, elevation: 685 m

Current weather observation

The report was made 17 minutes ago, at 12:30 UTC
Wind 4 kt from the North
Temperature 0°C
Humidity 74%
Pressure 1020 hPa
Visibility 10 km or more

METAR: UIAA 181230Z 35002MPS 9999 NSC 00/M04 Q1020 R29/CLRD70 NOSIG RMK QFE706/0942

Time: 21:47 (12:47 UTC)

Forecast

The report was made 1 hour and 47 minutes ago, at 11:00 UTC
Forecast valid from 18 at 12 UTC to 19 at 12 UTC
Wind 6 kt from the West with gusts up to 16 kt
Visibility 10 km or more
Temporary
from 18 at 18 UTC to 19 at 01 UTC
Visibility: 3100 m
mist

TAF: UIAA 181100Z 1812/1912 28003G08MPS 9999 NSC TEMPO 1818/1901 3100 BR

Weather observations and forecasts of more than 4000 airports (METAR and TAF reports).

The available stations are represented by yellow and red dots on the map.

Hover mouse over dot to see the name of the station.

Then click to see weather observations and forecasts.

To change the map : click on the green buttons with a black cross to zoom in, on the green button with a dash to zoom out, or on the green arrows for adjacent maps.


METAR-TAF: